Time;durP1;ratioP1;P1;durP2;ratioP2;P2;SDS_P1;SDS_P2;PMS_P1;PMS_P2;Temp;Humidity;BMP_temperature;BMP_pressure;BME280_temperature;BME280_humidity;BME280_pressure;Samples;Min_cycle;Max_cycle;Signal;HPM_P1;HPM_P2
2022/10/26 00:00:28;;;;;;;8.25;2.35;;;10.50;99.90;;;;;;5073671;28;20097;-75
2022/10/26 00:02:55;;;;;;;8.60;2.05;;;10.50;99.90;;;;;;5073639;28;20020;-75
2022/10/26 00:05:21;;;;;;;8.40;2.10;;;10.50;99.90;;;;;;5073724;28;20027;-75
2022/10/26 00:07:48;;;;;;;5.35;1.83;;;10.50;99.90;;;;;;5073703;28;20066;-75
2022/10/26 00:10:13;;;;;;;4.47;2.00;;;10.60;99.90;;;;;;5073521;28;20028;-75
2022/10/26 00:12:39;;;;;;;7.70;2.92;;;10.60;99.90;;;;;;5073615;28;20032;-75
2022/10/26 00:15:06;;;;;;;29.50;2.95;;;10.70;99.90;;;;;;5072901;28;20016;-75
2022/10/26 00:17:31;;;;;;;3.83;1.75;;;10.70;99.90;;;;;;5074145;28;20467;-75
2022/10/26 00:19:57;;;;;;;8.05;2.28;;;10.70;99.90;;;;;;5073332;28;20087;-75
2022/10/26 00:22:22;;;;;;;5.85;2.50;;;10.70;99.90;;;;;;5073974;28;20383;-75
2022/10/26 00:24:48;;;;;;;6.47;2.22;;;10.80;99.90;;;;;;5073499;28;20033;-74
2022/10/26 00:27:14;;;;;;;8.15;2.00;;;10.90;99.90;;;;;;5073390;28;20017;-75
2022/10/26 00:29:39;;;;;;;8.02;2.22;;;10.80;99.90;;;;;;5072132;28;20053;-75
2022/10/26 00:32:05;;;;;;;6.82;1.92;;;10.90;99.90;;;;;;5072027;28;20482;-75
2022/10/26 00:34:31;;;;;;;4.38;1.83;;;10.90;99.90;;;;;;5073278;28;20028;-75
2022/10/26 00:36:57;;;;;;;5.93;1.58;;;10.90;99.90;;;;;;5073449;28;20024;-75
2022/10/26 00:39:23;;;;;;;8.82;1.80;;;10.90;99.90;;;;;;5071905;28;20031;-74
2022/10/26 00:41:48;;;;;;;5.30;2.05;;;11.00;99.90;;;;;;5073148;28;20455;-74
2022/10/26 00:44:42;;;;;;;7.63;2.28;;;11.00;99.90;;;;;;5073093;28;20024;-75
2022/10/26 00:47:10;;;;;;;4.40;1.75;;;11.00;99.90;;;;;;5071954;28;20024;-74
2022/10/26 00:49:36;;;;;;;2.38;1.40;;;11.10;99.90;;;;;;5073222;28;20491;-75
2022/10/26 00:52:01;;;;;;;6.75;2.30;;;11.10;99.90;;;;;;5073132;28;20032;-75
2022/10/26 00:54:27;;;;;;;7.38;1.88;;;11.10;99.90;;;;;;5072991;28;20024;-75
2022/10/26 00:56:54;;;;;;;8.48;1.80;;;11.20;99.90;;;;;;5073094;28;20060;-75
2022/10/26 00:59:20;;;;;;;4.35;2.15;;;11.20;99.90;;;;;;5072970;28;20028;-75
2022/10/26 01:01:47;;;;;;;4.90;1.50;;;11.20;99.90;;;;;;5073361;28;20020;-75
2022/10/26 01:04:14;;;;;;;2.72;1.42;;;11.30;99.90;;;;;;5073509;28;20422;-75
2022/10/26 01:06:41;;;;;;;11.73;2.30;;;11.30;99.90;;;;;;5073061;28;20017;-75
2022/10/26 01:09:08;;;;;;;5.03;2.00;;;11.30;99.90;;;;;;5071670;28;20025;-75
2022/10/26 01:11:33;;;;;;;3.33;1.05;;;11.30;99.90;;;;;;5072945;28;20044;-75
2022/10/26 01:14:01;;;;;;;3.42;1.23;;;11.40;99.90;;;;;;5071608;28;20048;-75
2022/10/26 01:16:33;;;;;;;3.90;1.13;;;12.00;99.90;;;;;;5073454;28;20017;-74
2022/10/26 01:19:22;;;;;;;3.92;1.05;;;11.40;99.90;;;;;;5073196;28;20050;-75
2022/10/26 01:22:00;;;;;;;6.97;1.98;;;11.40;99.90;;;;;;5072917;28;20024;-75
2022/10/26 01:24:49;;;;;;;6.55;1.00;;;11.40;99.90;;;;;;5072700;28;20029;-75
2022/10/26 01:27:44;;;;;;;3.15;1.30;;;11.50;99.90;;;;;;5073336;28;20536;-75
2022/10/26 01:30:32;;;;;;;3.13;1.17;;;11.50;99.90;;;;;;5072833;28;20028;-75
2022/10/26 01:33:37;;;;;;;6.05;1.30;;;11.50;99.90;;;;;;5072729;28;20051;-75
2022/10/26 01:36:26;;;;;;;6.40;0.95;;;11.50;99.90;;;;;;5071595;28;20028;-75
2022/10/26 01:38:54;;;;;;;2.67;1.25;;;11.50;99.90;;;;;;5072740;28;20055;-75
2022/10/26 01:41:28;;;;;;;3.03;1.15;;;11.50;99.90;;;;;;5072702;28;20493;-75
2022/10/26 01:44:20;;;;;;;3.65;1.38;;;11.50;99.90;;;;;;5072563;28;20020;-75
2022/10/26 01:46:51;;;;;;;2.47;1.48;;;11.50;99.90;;;;;;5060438;28;20029;-75
2022/10/26 01:49:21;;;;;;;4.38;0.90;;;11.50;99.90;;;;;;5071141;28;20036;-75
2022/10/26 01:51:48;;;;;;;3.88;0.52;;;11.50;99.90;;;;;;5071497;28;20019;-75
2022/10/26 01:54:14;;;;;;;7.45;0.70;;;11.60;99.90;;;;;;5073594;28;20048;-74
2022/10/26 01:56:42;;;;;;;3.38;0.65;;;12.60;99.90;;;;;;5076662;28;20486;-75
2022/10/26 01:59:26;;;;;;;2.63;0.93;;;11.70;99.90;;;;;;5076594;28;20028;-74
2022/10/26 02:02:11;;;;;;;3.38;0.88;;;11.70;99.90;;;;;;5076674;28;20383;-75
2022/10/26 02:05:18;;;;;;;1.48;0.50;;;11.70;99.90;;;;;;5076321;28;20021;-75
2022/10/26 02:08:07;;;;;;;4.82;0.80;;;11.70;99.90;;;;;;5071959;28;20403;-74
2022/10/26 02:10:41;;;;;;;;;;;11.70;99.90;;;;;;5075389;28;20063;-75
2022/10/26 02:13:38;;;;;;;1.75;0.80;;;11.80;99.90;;;;;;5074461;28;19950;-74
2022/10/26 02:16:24;;;;;;;4.43;0.57;;;11.70;99.90;;;;;;5074479;28;20021;-75
2022/10/26 02:18:56;;;;;;;1.35;0.55;;;11.80;99.90;;;;;;5075894;28;20103;-75
2022/10/26 02:21:28;;;;;;;3.58;0.70;;;11.80;99.90;;;;;;5074392;28;20032;-74
2022/10/26 02:23:57;;;;;;;3.15;0.77;;;11.80;99.90;;;;;;5074462;28;20426;-75
2022/10/26 02:26:26;;;;;;;2.22;0.30;;;11.80;99.90;;;;;;5074452;28;20387;-74
2022/10/26 02:28:57;;;;;;;4.72;1.08;;;11.80;99.90;;;;;;5074171;28;20017;-74
2022/10/26 02:31:24;;;;;;;4.70;0.77;;;11.90;99.90;;;;;;5074280;28;20510;-74
2022/10/26 02:33:52;;;;;;;3.47;0.65;;;11.90;99.90;;;;;;5075562;28;20535;-74
2022/10/26 02:36:24;;;;;;;4.68;0.93;;;11.90;99.90;;;;;;5075387;28;20025;-74
2022/10/26 02:38:51;;;;;;;8.38;1.40;;;11.90;99.90;;;;;;5075511;28;20048;-74
2022/10/26 02:41:20;;;;;;;8.55;1.42;;;11.90;99.90;;;;;;5075318;28;20029;-74
2022/10/26 02:43:52;;;;;;;4.07;0.60;;;11.90;99.90;;;;;;5075415;28;20020;-75
2022/10/26 02:46:21;;;;;;;2.97;0.65;;;11.90;99.90;;;;;;5073987;28;20398;-75
2022/10/26 02:48:47;;;;;;;;;;;11.90;99.90;;;;;;5074210;28;20063;-75
2022/10/26 02:52:13;;;;;;;4.80;0.70;;;12.00;99.90;;;;;;5075144;28;20383;-74
2022/10/26 02:55:08;;;;;;;7.63;1.27;;;12.00;99.90;;;;;;4993659;28;20165;-75
2022/10/26 02:57:40;;;;;;;3.00;0.73;;;12.00;99.90;;;;;;4994348;28;20053;-74
2022/10/26 03:00:11;;;;;;;2.75;0.55;;;12.00;99.90;;;;;;5051293;28;20040;-75
2022/10/26 03:02:37;;;;;;;2.80;1.02;;;12.00;99.90;;;;;;5074882;28;20074;-75
2022/10/26 03:05:27;;;;;;;8.20;0.70;;;12.10;99.90;;;;;;5074711;28;20395;-75
2022/10/26 03:07:53;;;;;;;5.38;0.88;;;12.00;99.90;;;;;;5074768;28;20017;-75
2022/10/26 03:10:19;;;;;;;4.35;0.68;;;12.00;99.90;;;;;;5074905;28;20538;-75
2022/10/26 03:12:45;;;;;;;3.58;0.55;;;12.00;99.90;;;;;;5074661;28;20158;-75
2022/10/26 03:15:11;;;;;;;4.20;0.50;;;12.00;99.90;;;;;;5074727;28;20024;-75
2022/10/26 03:17:36;;;;;;;4.53;0.55;;;12.00;99.90;;;;;;5074642;28;20528;-75
2022/10/26 03:20:02;;;;;;;3.75;0.65;;;12.00;99.90;;;;;;5074535;28;20025;-75
2022/10/26 03:22:28;;;;;;;4.07;0.55;;;12.00;99.90;;;;;;5074532;28;20474;-74
2022/10/26 03:24:53;;;;;;;1.85;0.30;;;12.00;99.90;;;;;;5073307;28;20021;-75
2022/10/26 03:27:19;;;;;;;1.60;0.47;;;12.10;99.90;;;;;;5074416;28;20099;-74
2022/10/26 03:29:45;;;;;;;3.13;1.08;;;12.10;99.90;;;;;;5074504;28;20021;-75
2022/10/26 03:32:10;;;;;;;5.18;0.40;;;12.10;99.90;;;;;;5074235;28;20021;-75
2022/10/26 03:34:36;;;;;;;2.20;0.60;;;12.10;99.90;;;;;;5074397;28;20025;-75
2022/10/26 03:37:01;;;;;;;4.60;0.30;;;12.20;99.90;;;;;;5072876;28;20024;-74
2022/10/26 03:39:27;;;;;;;6.63;0.50;;;12.10;99.90;;;;;;5074702;28;20021;-74
2022/10/26 03:41:54;;;;;;;5.28;0.45;;;12.10;99.90;;;;;;5074089;28;20012;-75
2022/10/26 03:44:19;;;;;;;4.85;0.52;;;12.90;99.90;;;;;;5074014;28;20024;-75
2022/10/26 03:46:45;;;;;;;4.10;0.50;;;12.20;99.90;;;;;;5074059;28;20017;-75
2022/10/26 03:49:10;;;;;;;2.53;0.38;;;12.10;99.90;;;;;;5073884;28;20047;-75
2022/10/26 03:51:36;;;;;;;2.10;0.20;;;12.10;99.90;;;;;;5073067;28;20027;-76
2022/10/26 03:54:02;;;;;;;8.50;0.52;;;12.10;99.90;;;;;;5073838;28;20540;-76
2022/10/26 03:56:27;;;;;;;5.18;0.40;;;12.10;99.90;;;;;;5074059;28;20034;-76
2022/10/26 03:58:53;;;;;;;3.95;0.65;;;12.40;99.90;;;;;;5073029;28;20035;-76
2022/10/26 04:01:18;;;;;;;4.70;0.47;;;12.20;99.90;;;;;;5074370;28;20479;-76
2022/10/26 04:03:44;;;;;;;2.72;0.38;;;12.20;99.90;;;;;;5073225;28;20024;-76
2022/10/26 04:06:09;;;;;;;5.25;1.13;;;12.20;99.90;;;;;;5074371;28;20012;-76
2022/10/26 04:08:35;;;;;;;2.25;0.20;;;12.40;99.90;;;;;;5074692;28;20053;-76
2022/10/26 04:11:00;;;;;;;3.83;0.65;;;12.20;99.90;;;;;;5074737;28;20078;-76
2022/10/26 04:13:26;;;;;;;2.95;0.40;;;12.20;99.90;;;;;;5074298;28;20050;-76
2022/10/26 04:15:51;;;;;;;4.25;0.40;;;12.20;99.90;;;;;;5074784;28;20060;-76
2022/10/26 04:18:17;;;;;;;1.02;0.30;;;12.30;99.90;;;;;;5072492;28;20024;-76
2022/10/26 04:20:43;;;;;;;1.83;0.55;;;12.20;99.90;;;;;;5074049;28;20099;-76
2022/10/26 04:23:14;;;;;;;6.60;0.80;;;12.30;99.90;;;;;;5073950;28;20044;-76
2022/10/26 04:25:40;;;;;;;4.85;0.85;;;12.20;99.90;;;;;;5073837;28;20070;-76
2022/10/26 04:28:06;;;;;;;2.90;0.50;;;12.20;99.90;;;;;;5073540;28;20450;-76
2022/10/26 04:30:33;;;;;;;3.10;0.70;;;12.20;99.90;;;;;;5072819;28;20028;-76
2022/10/26 04:32:59;;;;;;;10.15;1.58;;;12.20;99.90;;;;;;5072043;28;20029;-76
2022/10/26 04:35:25;;;;;;;2.95;0.70;;;12.20;99.90;;;;;;5072136;28;20071;-76
2022/10/26 04:37:55;;;;;;;2.50;0.40;;;12.20;99.90;;;;;;5073025;28;20024;-76
2022/10/26 04:40:20;;;;;;;2.50;0.98;;;12.20;99.90;;;;;;5074120;28;20459;-76
2022/10/26 04:42:46;;;;;;;7.03;0.80;;;12.30;99.90;;;;;;5072038;28;20021;-76
2022/10/26 04:45:15;;;;;;;3.05;0.70;;;12.30;99.90;;;;;;5073329;28;20028;-76
2022/10/26 04:47:41;;;;;;;;;;;12.20;99.90;;;;;;5074083;28;20104;-76
2022/10/26 04:50:08;;;;;;;2.15;0.40;;;12.30;99.90;;;;;;5072128;28;20409;-76
2022/10/26 04:52:34;;;;;;;2.35;0.40;;;12.30;99.90;;;;;;5073081;28;20060;-76
2022/10/26 04:55:00;;;;;;;2.75;0.60;;;12.30;99.90;;;;;;5073137;28;20051;-76
2022/10/26 04:57:25;;;;;;;4.38;0.65;;;12.30;99.90;;;;;;5073233;28;20021;-76
2022/10/26 04:59:51;;;;;;;5.30;1.10;;;12.20;99.90;;;;;;5071833;28;20058;-76
2022/10/26 05:02:17;;;;;;;5.18;1.15;;;12.20;99.90;;;;;;5073067;28;20024;-76
2022/10/26 05:04:42;;;;;;;4.72;0.55;;;12.20;99.90;;;;;;5071793;28;20024;-76
2022/10/26 05:07:08;;;;;;;2.10;0.60;;;12.10;99.90;;;;;;5073070;28;20099;-76
2022/10/26 05:09:33;;;;;;;4.05;0.68;;;12.10;99.90;;;;;;5071728;28;20063;-76
2022/10/26 05:11:59;;;;;;;3.72;0.90;;;12.00;99.90;;;;;;5071793;28;20029;-76
2022/10/26 05:14:24;;;;;;;3.42;0.60;;;12.00;99.90;;;;;;5071710;28;20382;-76
2022/10/26 05:16:50;;;;;;;10.85;1.05;;;12.00;99.90;;;;;;5072943;28;20433;-76
2022/10/26 05:19:16;;;;;;;8.93;1.10;;;12.00;99.90;;;;;;5072894;28;20024;-76
2022/10/26 05:21:41;;;;;;;2.20;0.40;;;12.00;99.90;;;;;;5073170;28;20021;-76
2022/10/26 05:24:07;;;;;;;6.57;1.23;;;12.00;99.90;;;;;;5071619;28;20021;-76
2022/10/26 05:26:32;;;;;;;3.03;0.45;;;12.00;99.90;;;;;;5073531;28;20368;-76
2022/10/26 05:28:58;;;;;;;6.28;1.20;;;11.90;99.90;;;;;;5072192;28;20033;-76
2022/10/26 05:31:24;;;;;;;3.20;0.73;;;11.90;99.90;;;;;;5076852;28;20024;-76
2022/10/26 05:33:51;;;;;;;4.07;0.93;;;12.00;99.90;;;;;;5076801;28;20143;-76
2022/10/26 05:36:17;;;;;;;5.65;0.63;;;12.00;99.90;;;;;;5075220;28;20032;-76
2022/10/26 05:38:43;;;;;;;5.55;1.08;;;12.10;99.90;;;;;;5075550;28;20070;-76
2022/10/26 05:41:09;;;;;;;2.03;0.75;;;12.00;99.90;;;;;;5076252;28;20394;-76
2022/10/26 05:43:34;;;;;;;5.45;0.88;;;12.00;99.90;;;;;;5076347;28;20039;-76
2022/10/26 05:46:00;;;;;;;3.83;1.20;;;12.10;99.90;;;;;;5076921;28;20052;-76
2022/10/26 05:48:26;;;;;;;7.53;1.50;;;12.10;99.90;;;;;;5076148;28;20037;-76
2022/10/26 05:50:58;;;;;;;6.18;1.42;;;12.60;99.90;;;;;;5075125;28;20490;-76
2022/10/26 05:53:24;;;;;;;5.15;0.90;;;12.10;99.90;;;;;;5076682;28;20035;-75
2022/10/26 05:55:50;;;;;;;8.18;1.00;;;12.10;99.90;;;;;;5076144;28;20028;-75
2022/10/26 05:58:15;;;;;;;2.63;1.10;;;12.10;99.90;;;;;;5076171;28;20028;-75
2022/10/26 06:01:07;;;;;;;3.50;1.10;;;12.10;99.90;;;;;;5075981;28;20016;-75
2022/10/26 06:03:40;;;;;;;7.07;0.93;;;12.20;99.90;;;;;;5076608;28;20533;-75
2022/10/26 06:06:06;;;;;;;2.58;0.50;;;12.20;99.90;;;;;;5074872;28;20017;-75
2022/10/26 06:08:32;;;;;;;5.78;0.85;;;12.20;99.90;;;;;;5075844;28;20024;-75
2022/10/26 06:10:58;;;;;;;4.30;1.05;;;12.20;99.90;;;;;;5075666;28;20047;-75
2022/10/26 06:13:24;;;;;;;3.05;1.38;;;12.20;99.90;;;;;;5075801;28;20376;-75
2022/10/26 06:16:10;;;;;;;2.03;0.63;;;12.10;99.90;;;;;;5075730;28;20032;-75
2022/10/26 06:18:43;;;;;;;4.00;0.73;;;12.20;99.90;;;;;;5075964;28;20024;-75
2022/10/26 06:21:25;;;;;;;3.33;1.10;;;12.10;99.90;;;;;;5076208;28;20039;-75
2022/10/26 06:24:13;;;;;;;4.20;1.73;;;12.10;99.90;;;;;;5075907;28;20085;-75
2022/10/26 06:26:50;;;;;;;3.53;1.17;;;12.10;99.90;;;;;;5075783;28;20070;-75
2022/10/26 06:29:27;;;;;;;5.80;1.30;;;12.00;99.90;;;;;;5075728;28;20020;-75
2022/10/26 06:31:53;;;;;;;3.22;0.88;;;;;;;;;;5074129;28;20111;-75
2022/10/26 06:34:27;;;;;;;3.58;1.20;;;12.00;99.90;;;;;;5075427;28;20032;-75
2022/10/26 06:36:56;;;;;;;2.20;0.98;;;12.00;99.90;;;;;;5075511;28;20029;-75
2022/10/26 06:39:23;;;;;;;;;;;12.00;99.90;;;;;;5075711;28;20361;-75
2022/10/26 06:41:52;;;;;;;4.97;1.02;;;12.00;99.90;;;;;;5075255;28;19909;-75
2022/10/26 06:44:22;;;;;;;;;;;12.00;99.90;;;;;;5075782;28;20482;-75
2022/10/26 06:46:50;;;;;;;3.58;1.00;;;12.00;99.90;;;;;;5075334;28;20355;-75
2022/10/26 06:49:26;;;;;;;2.70;0.85;;;12.00;99.90;;;;;;5073880;28;20028;-75
2022/10/26 06:51:56;;;;;;;3.22;1.23;;;12.10;99.90;;;;;;5075190;28;20031;-75
2022/10/26 06:54:50;;;;;;;4.57;1.13;;;12.20;99.90;;;;;;5075012;28;20560;-75
2022/10/26 06:57:17;;;;;;;4.22;0.98;;;12.20;99.90;;;;;;5074116;28;20122;-75
2022/10/26 06:59:50;;;;;;;5.10;1.25;;;12.20;99.90;;;;;;5075082;28;20076;-75
2022/10/26 07:02:16;;;;;;;3.40;0.88;;;12.20;99.90;;;;;;5074750;28;20025;-75
2022/10/26 07:04:43;;;;;;;1.73;0.95;;;12.30;99.90;;;;;;5074947;28;20048;-75
2022/10/26 07:07:12;;;;;;;5.95;2.25;;;12.30;99.90;;;;;;5073625;28;20072;-75
2022/10/26 07:09:38;;;;;;;7.80;1.63;;;12.40;99.90;;;;;;5074761;28;20017;-75
2022/10/26 07:12:04;;;;;;;7.57;0.98;;;12.50;99.90;;;;;;5073463;28;20027;-75
2022/10/26 07:14:29;;;;;;;4.63;0.85;;;12.50;99.90;;;;;;5073547;28;20487;-77
2022/10/26 07:16:55;;;;;;;2.50;0.75;;;12.50;99.90;;;;;;5074758;28;20095;-75
2022/10/26 07:19:21;;;;;;;2.08;0.73;;;13.60;99.90;;;;;;5073331;28;20108;-75
2022/10/26 07:21:47;;;;;;;3.90;1.13;;;12.60;99.90;;;;;;5074538;28;20095;-75
2022/10/26 07:24:13;;;;;;;3.08;0.70;;;12.60;99.90;;;;;;5074437;28;20020;-75
2022/10/26 07:26:38;;;;;;;3.95;1.02;;;12.60;99.90;;;;;;5073273;28;20024;-75
2022/10/26 07:29:04;;;;;;;5.90;1.25;;;12.60;99.90;;;;;;5074369;28;20027;-75
2022/10/26 07:31:29;;;;;;;6.30;1.35;;;12.60;99.90;;;;;;5074341;28;20063;-75
2022/10/26 07:33:55;;;;;;;3.72;1.15;;;12.60;99.90;;;;;;5074225;28;20040;-75
2022/10/26 07:36:21;;;;;;;2.63;1.20;;;12.80;99.90;;;;;;5074216;28;20025;-75
2022/10/26 07:38:49;;;;;;;6.20;2.13;;;12.70;99.90;;;;;;5074320;28;20138;-75
2022/10/26 07:41:15;;;;;;;4.95;1.13;;;12.80;99.90;;;;;;5074296;28;20036;-75
2022/10/26 07:43:40;;;;;;;4.22;0.98;;;12.90;99.90;;;;;;5074141;28;20032;-75
2022/10/26 07:46:06;;;;;;;5.55;0.95;;;13.00;99.90;;;;;;5072585;28;20024;-75
2022/10/26 07:48:31;;;;;;;8.50;1.35;;;13.10;99.90;;;;;;5071812;23;20439;-72
2022/10/26 07:50:59;;;;;;;6.35;1.08;;;13.20;99.90;;;;;;5014852;28;20026;-72
2022/10/26 07:53:25;;;;;;;2.50;1.17;;;13.40;99.90;;;;;;5002765;28;20087;-72
2022/10/26 07:55:55;;;;;;;5.45;0.90;;;13.40;99.90;;;;;;4994668;28;20026;-72
2022/10/26 07:58:23;;;;;;;1.58;0.88;;;13.50;99.90;;;;;;4994703;28;20034;-72
2022/10/26 08:00:49;;;;;;;4.13;1.38;;;13.60;99.90;;;;;;4995074;28;20081;-72
2022/10/26 08:03:15;;;;;;;4.90;0.85;;;13.70;99.90;;;;;;4994371;28;20045;-72
2022/10/26 08:05:41;;;;;;;5.47;1.00;;;13.80;99.90;;;;;;4994439;28;20026;-72
2022/10/26 08:08:07;;;;;;;6.22;1.20;;;13.90;99.90;;;;;;4994506;28;20089;-72
2022/10/26 08:10:32;;;;;;;1.58;0.98;;;13.90;99.90;;;;;;4994299;28;20034;-72
2022/10/26 08:12:58;;;;;;;2.30;0.73;;;14.00;99.90;;;;;;4994346;28;20481;-72
2022/10/26 08:15:23;;;;;;;6.65;1.05;;;14.00;99.90;;;;;;4994580;28;20062;-72
2022/10/26 08:17:49;;;;;;;8.45;1.23;;;14.00;99.90;;;;;;4994316;28;20516;-72
2022/10/26 08:20:14;;;;;;;6.40;1.10;;;14.10;99.90;;;;;;4992954;28;20019;-72
2022/10/26 08:22:40;;;;;;;4.45;0.93;;;14.20;99.90;;;;;;4992919;28;20041;-72
2022/10/26 08:25:06;;;;;;;3.47;0.95;;;14.30;99.90;;;;;;4994229;28;20034;-72
2022/10/26 08:27:31;;;;;;;5.65;1.05;;;14.40;99.90;;;;;;4994624;28;20126;-72
2022/10/26 08:29:57;;;;;;;8.02;1.27;;;14.50;99.90;;;;;;4994114;28;20153;-72
2022/10/26 08:32:22;;;;;;;2.75;0.90;;;14.50;99.90;;;;;;4994675;28;20022;-72
2022/10/26 08:34:48;;;;;;;2.30;0.52;;;14.70;99.90;;;;;;4994156;28;20031;-72
2022/10/26 08:37:13;;;;;;;3.35;1.25;;;14.80;99.90;;;;;;4994159;28;20027;-72
2022/10/26 08:39:39;;;;;;;4.40;0.98;;;14.90;99.90;;;;;;4994531;28;20038;-72
2022/10/26 08:42:15;;;;;;;6.78;0.88;;;14.90;99.90;;;;;;4993008;28;20061;-72
2022/10/26 08:44:57;;;;;;;3.65;0.70;;;14.90;99.90;;;;;;4994529;28;20030;-72
2022/10/26 08:47:27;;;;;;;2.22;0.65;;;14.90;99.90;;;;;;4994336;28;20022;-71
2022/10/26 08:50:05;;;;;;;3.85;1.17;;;14.90;99.90;;;;;;4993863;28;20046;-71
2022/10/26 08:52:48;;;;;;;4.47;0.85;;;15.00;99.90;;;;;;4993794;28;20033;-71
2022/10/26 08:55:17;;;;;;;1.83;0.60;;;15.00;99.90;;;;;;4993922;28;20037;-72
2022/10/26 08:57:49;;;;;;;5.25;1.17;;;15.00;99.90;;;;;;4993889;28;20033;-72
2022/10/26 09:00:18;;;;;;;2.92;0.73;;;15.00;99.90;;;;;;4993731;28;20067;-72
2022/10/26 09:02:48;;;;;;;2.90;0.88;;;15.20;99.90;;;;;;4992432;28;20445;-72
2022/10/26 09:05:15;;;;;;;3.25;0.45;;;15.30;99.90;;;;;;4995517;28;20022;-72
2022/10/26 09:08:29;;;;;;;3.05;0.80;;;15.50;99.90;;;;;;4996596;28;20026;-72
2022/10/26 09:11:03;;;;;;;3.05;0.60;;;15.70;99.90;;;;;;4989703;28;20046;-72
2022/10/26 09:13:47;;;;;;;4.15;0.73;;;15.90;99.90;;;;;;4996467;28;20041;-72
2022/10/26 09:16:19;;;;;;;2.50;0.57;;;15.90;99.90;;;;;;4996473;28;20037;-72
2022/10/26 09:19:05;;;;;;;4.38;0.30;;;15.90;99.90;;;;;;4996270;28;20109;-72
2022/10/26 09:21:41;;;;;;;3.15;0.35;;;16.00;99.90;;;;;;4996204;28;20048;-72
2022/10/26 09:24:23;;;;;;;5.82;0.68;;;16.20;99.90;;;;;;4997521;28;20113;-72
2022/10/26 09:26:53;;;;;;;2.67;0.10;;;16.30;99.90;;;;;;4998037;28;20022;-72
2022/10/26 09:29:24;;;;;;;3.50;0.50;;;16.50;99.90;;;;;;4998152;28;20018;-72
2022/10/26 09:31:50;;;;;;;4.95;0.38;;;16.60;99.90;;;;;;4997438;28;20435;-72
2022/10/26 09:34:35;;;;;;;3.90;0.47;;;16.70;99.90;;;;;;4997788;28;20073;-72
2022/10/26 09:37:19;;;;;;;2.60;0.40;;;16.80;99.90;;;;;;4998034;28;20034;-72
2022/10/26 09:40:09;;;;;;;2.17;0.28;;;16.90;99.90;;;;;;4996020;28;20026;-72
2022/10/26 09:42:39;;;;;;;8.98;0.50;;;16.90;99.90;;;;;;4956775;28;20034;-72
2022/10/26 09:45:21;;;;;;;3.35;0.40;;;16.90;99.90;;;;;;4998103;28;20461;-72
2022/10/26 09:47:52;;;;;;;2.13;0.22;;;16.90;99.90;;;;;;4995916;28;20050;-72
2022/10/26 09:50:27;;;;;;;2.70;0.30;;;16.90;99.90;;;;;;4997078;28;20105;-72
2022/10/26 09:52:53;;;;;;;7.57;0.52;;;17.00;99.90;;;;;;4997301;28;20034;-72
2022/10/26 09:55:20;;;;;;;1.35;0.40;;;17.10;99.90;;;;;;4997078;28;20477;-72
2022/10/26 09:57:50;;;;;;;3.75;0.55;;;17.10;99.90;;;;;;4996941;28;20076;-72
2022/10/26 10:00:18;;;;;;;3.83;0.43;;;17.20;99.90;;;;;;4996864;28;20050;-72
2022/10/26 10:02:48;;;;;;;4.07;0.10;;;17.20;99.90;;;;;;4995530;28;20019;-72
2022/10/26 10:05:26;;;;;;;4.43;0.35;;;17.30;99.90;;;;;;4996488;28;20026;-72
2022/10/26 10:08:08;;;;;;;4.32;1.15;;;17.40;99.90;;;;;;4996799;28;20516;-72
2022/10/26 10:10:33;;;;;;;8.40;0.40;;;17.50;99.90;;;;;;4996951;28;20019;-72
2022/10/26 10:13:15;;;;;;;2.35;0.65;;;17.60;99.90;;;;;;4996688;28;20505;-72
2022/10/26 10:16:10;;;;;;;1.08;0.17;;;17.60;99.90;;;;;;4996226;28;20041;-72
2022/10/26 10:18:38;;;;;;;3.13;0.60;;;17.80;99.90;;;;;;4994770;28;20042;-72
2022/10/26 10:21:05;;;;;;;2.10;0.60;;;17.90;99.90;;;;;;4994985;28;20022;-72
2022/10/26 10:23:48;;;;;;;1.65;0.25;;;17.90;99.90;;;;;;4995479;28;20254;-72
2022/10/26 10:26:14;;;;;;;3.80;0.30;;;17.90;99.90;;;;;;4994943;28;20080;-72
2022/10/26 10:28:41;;;;;;;3.92;0.35;;;18.00;99.90;;;;;;4996265;28;20018;-72
2022/10/26 10:31:21;;;;;;;1.58;0.50;;;18.10;99.90;;;;;;4996865;28;20477;-72
2022/10/26 10:33:48;;;;;;;0.55;0.15;;;18.10;99.90;;;;;;4996632;28;20022;-72
2022/10/26 10:36:22;;;;;;;2.58;0.30;;;18.00;99.90;;;;;;4996092;28;20019;-72
2022/10/26 10:38:50;;;;;;;2.78;0.30;;;18.10;99.90;;;;;;4994772;28;20033;-72
2022/10/26 10:41:38;;;;;;;3.33;0.20;;;18.10;99.90;;;;;;4996500;28;20054;-72
2022/10/26 10:44:30;;;;;;;0.88;0.28;;;18.20;99.90;;;;;;4994489;28;20022;-72
2022/10/26 10:47:04;;;;;;;2.38;0.55;;;18.20;99.90;;;;;;4996282;28;20488;-72
2022/10/26 10:49:30;;;;;;;2.17;0.43;;;18.20;99.90;;;;;;4994537;28;20038;-72
2022/10/26 10:51:57;;;;;;;1.08;0.50;;;18.10;99.90;;;;;;4995800;28;20022;-72
2022/10/26 10:54:31;;;;;;;5.07;0.45;;;18.10;99.90;;;;;;4994819;28;20470;-72
2022/10/26 10:57:27;;;;;;;4.10;0.35;;;18.00;99.90;;;;;;4995953;28;20023;-72
2022/10/26 11:00:08;;;;;;;2.55;0.52;;;17.90;99.90;;;;;;4986414;28;20038;-72
2022/10/26 11:02:43;;;;;;;4.57;0.60;;;17.90;99.90;;;;;;4995124;28;20436;-72
2022/10/26 11:05:40;;;;;;;1.55;0.35;;;17.90;99.90;;;;;;4995619;28;20026;-72
2022/10/26 11:08:14;;;;;;;4.00;0.60;;;17.70;99.90;;;;;;4996137;28;20022;-72
2022/10/26 11:10:49;;;;;;;1.25;0.30;;;20.20;99.90;;;;;;4995613;28;20429;-72
2022/10/26 11:13:24;;;;;;;1.40;0.40;;;17.50;99.90;;;;;;4995416;28;20085;-72
2022/10/26 11:15:55;;;;;;;3.83;0.20;;;17.40;99.90;;;;;;4993989;28;20520;-74
2022/10/26 11:18:36;;;;;;;2.05;0.20;;;17.50;99.90;;;;;;4995482;28;20030;-74
2022/10/26 11:21:20;;;;;;;3.97;0.30;;;17.40;99.90;;;;;;4995270;28;20034;-74
2022/10/26 11:23:51;;;;;;;8.98;0.95;;;17.40;99.90;;;;;;4995300;28;20389;-73
2022/10/26 11:26:21;;;;;;;4.28;0.40;;;17.30;99.90;;;;;;4995266;28;20054;-73
2022/10/26 11:29:04;;;;;;;1.35;0.30;;;17.30;99.90;;;;;;4993673;28;20403;-73
2022/10/26 11:31:37;;;;;;;2.05;0.68;;;17.30;99.90;;;;;;4995067;28;20481;-72
2022/10/26 11:34:32;;;;;;;3.42;0.77;;;17.30;99.90;;;;;;4995320;28;20026;-75
2022/10/26 11:37:14;;;;;;;1.05;0.10;;;17.30;99.90;;;;;;4995132;28;20412;-73
2022/10/26 11:40:00;;;;;;;3.22;0.20;;;17.50;99.90;;;;;;4995535;28;20061;-73
2022/10/26 11:42:53;;;;;;;2.80;0.20;;;17.80;99.90;;;;;;4995099;28;20031;-73
2022/10/26 11:45:33;;;;;;;3.15;0.20;;;18.00;99.90;;;;;;4993793;28;20044;-73
2022/10/26 11:48:08;;;;;;;1.45;0.38;;;18.30;99.90;;;;;;4994029;28;20022;-74
2022/10/26 11:50:38;;;;;;;3.85;0.68;;;18.30;99.90;;;;;;4994933;28;20050;-73
2022/10/26 11:53:16;;;;;;;2.67;0.60;;;18.40;99.90;;;;;;4995332;28;20019;-72
2022/10/26 11:55:48;;;;;;;3.58;0.40;;;18.50;99.90;;;;;;4995630;28;20168;-75
2022/10/26 11:58:14;;;;;;;3.10;0.40;;;18.50;99.90;;;;;;4993648;28;20382;-72
2022/10/26 12:01:10;;;;;;;3.33;0.30;;;18.50;99.90;;;;;;4994652;28;20030;-73
2022/10/26 12:03:44;;;;;;;4.22;0.30;;;18.50;99.90;;;;;;4991947;28;20038;-73
2022/10/26 12:06:10;;;;;;;6.15;0.22;;;18.50;99.90;;;;;;4993379;28;20025;-74
2022/10/26 12:08:40;;;;;;;2.42;0.22;;;18.80;99.90;;;;;;4994747;28;20073;-74
2022/10/26 12:11:33;;;;;;;4.40;0.60;;;19.10;99.90;;;;;;4993094;28;20018;-74
2022/10/26 12:14:21;;;;;;;3.80;0.15;;;19.30;99.90;;;;;;4994545;28;20085;-74
2022/10/26 12:17:05;;;;;;;1.90;0.30;;;19.30;99.90;;;;;;4994990;28;20026;-74
2022/10/26 12:19:46;;;;;;;6.75;0.25;;;19.20;99.90;;;;;;4993054;28;20026;-74
2022/10/26 12:22:15;;;;;;;3.83;0.28;;;19.20;99.90;;;;;;4992977;28;20029;-74
2022/10/26 12:24:45;;;;;;;3.95;0.32;;;19.20;99.90;;;;;;4993253;28;20026;-74
2022/10/26 12:27:31;;;;;;;2.08;0.00;;;19.20;99.90;;;;;;4992960;28;20404;-74
2022/10/26 12:30:18;;;;;;;1.10;0.00;;;19.10;99.90;;;;;;4993777;28;20042;-74
2022/10/26 12:32:44;;;;;;;1.00;0.30;;;19.10;99.90;;;;;;4993162;28;20026;-74
2022/10/26 12:35:34;;;;;;;2.70;0.22;;;19.10;99.90;;;;;;4994079;28;20027;-74
2022/10/26 12:38:01;;;;;;;1.65;0.10;;;19.20;99.90;;;;;;4994159;28;20037;-74
2022/10/26 12:40:42;;;;;;;2.43;0.00;;;19.30;99.90;;;;;;4994141;28;20030;-72
2022/10/26 12:43:16;;;;;;;1.20;0.10;;;19.50;99.90;;;;;;4994016;28;20490;-72
2022/10/26 12:46:06;;;;;;;0.45;0.10;;;19.80;99.90;;;;;;4992735;28;20031;-74
2022/10/26 12:48:42;;;;;;;2.65;0.22;;;20.50;99.90;;;;;;4992181;28;20022;-74
2022/10/26 12:51:33;;;;;;;3.00;0.10;;;20.20;99.90;;;;;;4994445;28;20030;-75
2022/10/26 12:54:31;;;;;;;2.47;0.35;;;20.10;99.90;;;;;;4990928;28;20043;-74
2022/10/26 12:57:27;;;;;;;1.30;0.00;;;20.30;99.90;;;;;;4992502;28;20080;-74
2022/10/26 13:00:04;;;;;;;2.22;0.05;;;20.40;99.90;;;;;;4992516;28;20076;-75
2022/10/26 13:02:51;;;;;;;5.72;0.10;;;20.50;99.90;;;;;;4993761;28;20026;-75
2022/10/26 13:05:50;;;;;;;1.58;0.10;;;20.40;99.90;;;;;;4992567;28;20018;-74
2022/10/26 13:08:16;;;;;;;2.85;0.10;;;20.40;99.90;;;;;;4993755;28;20030;-75
2022/10/26 13:11:11;;;;;;;3.55;0.57;;;20.50;99.90;;;;;;4992565;28;20165;-74
2022/10/26 13:13:38;;;;;;;1.33;0.08;;;20.80;99.90;;;;;;4993775;28;20062;-72